Time;durP1;ratioP1;P1;durP2;ratioP2;P2;SDS_P1;SDS_P2;PMS_P1;PMS_P2;Temp;Humidity;BMP_temperature;BMP_pressure;BME280_temperature;BME280_humidity;BME280_pressure;Samples;Min_cycle;Max_cycle;Signal;HPM_P1;HPM_P2
2021/01/17 00:00:12;;;;;;;3.17;2.40;;;22.20;26.90;;;;;;4997524;28;20038;-44
2021/01/17 00:02:41;;;;;;;2.22;2.03;;;22.20;26.90;;;;;;4996674;28;20030;-47
2021/01/17 00:05:11;;;;;;;2.22;2.00;;;22.10;26.90;;;;;;4997234;28;20066;-46
2021/01/17 00:07:37;;;;;;;2.58;2.38;;;22.10;26.90;;;;;;4997450;28;20030;-43
2021/01/17 00:10:11;;;;;;;3.10;2.40;;;22.10;26.90;;;;;;4986568;28;20039;-43
2021/01/17 00:12:37;;;;;;;2.53;2.28;;;22.10;26.90;;;;;;4980497;28;20063;-46
2021/01/17 00:15:11;;;;;;;2.38;2.17;;;22.10;26.90;;;;;;4954004;28;20069;-49
2021/01/17 00:17:40;;;;;;;2.47;2.25;;;22.10;27.00;;;;;;4977952;28;20054;-44
2021/01/17 00:20:12;;;;;;;2.65;2.40;;;22.10;27.00;;;;;;4991167;28;20081;-43
2021/01/17 00:22:39;;;;;;;2.20;2.00;;;22.00;27.00;;;;;;4997604;28;20027;-45
2021/01/17 00:25:06;;;;;;;2.67;2.20;;;22.00;27.00;;;;;;4995332;28;20081;-48
2021/01/17 00:27:32;;;;;;;2.90;2.30;;;22.00;27.00;;;;;;4997343;28;20036;-45
2021/01/17 00:29:58;;;;;;;2.25;2.05;;;22.00;27.00;;;;;;4989985;28;20031;-45
2021/01/17 00:32:24;;;;;;;3.72;2.13;;;22.00;27.00;;;;;;4978312;28;20031;-46
2021/01/17 00:34:50;;;;;;;2.45;2.15;;;22.00;27.10;;;;;;4992820;28;20100;-46
2021/01/17 00:37:16;;;;;;;3.22;2.60;;;22.00;27.10;;;;;;4994936;28;20038;-44
2021/01/17 00:39:42;;;;;;;2.70;2.50;;;21.90;27.10;;;;;;4990921;28;20402;-45
2021/01/17 00:42:13;;;;;;;2.80;2.20;;;21.90;27.10;;;;;;4986710;28;20041;-44
2021/01/17 00:44:39;;;;;;;3.00;2.70;;;21.90;27.10;;;;;;4990704;28;20034;-46
2021/01/17 00:47:05;;;;;;;2.40;2.20;;;21.90;27.10;;;;;;4995935;28;20054;-44
2021/01/17 00:49:31;;;;;;;3.28;2.70;;;21.90;27.10;;;;;;4979571;28;20442;-46
2021/01/17 00:51:57;;;;;;;4.22;2.38;;;21.90;27.10;;;;;;4995665;28;20019;-48
2021/01/17 00:54:23;;;;;;;3.83;2.40;;;21.90;27.70;;;;;;4976458;28;20045;-48
2021/01/17 00:56:49;;;;;;;3.63;2.50;;;21.90;27.60;;;;;;4992167;28;20049;-47
2021/01/17 00:59:18;;;;;;;2.60;2.40;;;21.90;27.10;;;;;;4993792;28;20034;-44
2021/01/17 01:01:46;;;;;;;3.15;2.42;;;21.80;27.10;;;;;;4974520;28;20065;-45
2021/01/17 01:04:17;;;;;;;2.63;2.42;;;21.80;27.10;;;;;;4996695;28;20038;-46
2021/01/17 01:06:43;;;;;;;2.85;2.60;;;21.80;27.10;;;;;;4990874;28;20045;-46
2021/01/17 01:09:14;;;;;;;2.65;2.45;;;21.80;27.10;;;;;;4996255;28;20034;-48
2021/01/17 01:11:41;;;;;;;3.20;2.78;;;21.80;27.10;;;;;;4995963;28;20121;-46
2021/01/17 01:14:07;;;;;;;2.88;2.63;;;21.80;27.10;;;;;;4996704;28;20135;-45
2021/01/17 01:16:33;;;;;;;2.42;2.22;;;21.80;27.10;;;;;;4995272;28;20038;-46
2021/01/17 01:19:00;;;;;;;2.55;2.35;;;21.80;27.10;;;;;;4996612;28;20072;-44
2021/01/17 01:21:30;;;;;;;2.90;2.60;;;21.80;27.10;;;;;;4992410;28;20450;-45
2021/01/17 01:23:56;;;;;;;2.53;2.33;;;21.70;27.10;;;;;;4996112;28;20040;-44
2021/01/17 01:26:22;;;;;;;3.00;2.70;;;21.70;27.10;;;;;;4980000;28;20051;-48
2021/01/17 01:28:53;;;;;;;2.83;2.60;;;21.70;27.10;;;;;;4976980;28;20140;-45
2021/01/17 01:31:24;;;;;;;3.03;2.65;;;21.70;27.10;;;;;;4993774;28;20039;-44
2021/01/17 01:33:55;;;;;;;3.13;2.50;;;21.70;27.20;;;;;;4988055;28;20026;-43
2021/01/17 01:36:27;;;;;;;3.08;2.47;;;21.70;27.20;;;;;;4994166;28;20057;-45
2021/01/17 01:38:53;;;;;;;2.65;2.45;;;21.70;27.20;;;;;;4989448;28;20035;-43
2021/01/17 01:41:19;;;;;;;3.50;3.08;;;21.70;27.20;;;;;;4995639;28;20030;-45
2021/01/17 01:43:46;;;;;;;2.83;2.53;;;21.70;27.20;;;;;;4994243;28;20405;-47
2021/01/17 01:46:16;;;;;;;2.70;2.38;;;21.70;27.70;;;;;;4995619;28;20034;-47
2021/01/17 01:48:44;;;;;;;4.18;3.20;;;21.60;27.20;;;;;;4990626;28;20038;-44
2021/01/17 01:51:12;;;;;;;2.97;2.65;;;21.70;27.20;;;;;;4990569;28;20041;-48
2021/01/17 01:53:41;;;;;;;3.08;2.65;;;21.60;27.20;;;;;;4992537;28;20470;-44
2021/01/17 01:56:08;;;;;;;3.63;2.88;;;21.60;27.20;;;;;;4994965;28;20066;-47
2021/01/17 01:58:37;;;;;;;2.90;2.60;;;21.60;27.30;;;;;;4993421;28;20452;-46
2021/01/17 02:01:06;;;;;;;3.58;3.15;;;21.60;27.30;;;;;;4988978;28;20196;-44
2021/01/17 02:03:33;;;;;;;3.58;2.88;;;21.60;27.30;;;;;;4995175;28;20038;-45
2021/01/17 02:06:00;;;;;;;3.10;2.80;;;21.60;27.30;;;;;;4995343;28;20410;-43
2021/01/17 02:09:03;;;;;;;3.15;2.45;;;21.60;27.30;;;;;;4995040;28;20034;-45
2021/01/17 02:11:37;;;;;;;3.97;2.85;;;21.50;27.30;;;;;;4991937;28;20026;-44
2021/01/17 02:14:08;;;;;;;;;;;21.50;27.30;;;;;;4994924;28;20118;-48
2021/01/17 02:16:37;;;;;;;3.80;3.03;;;21.50;27.30;;;;;;4995420;28;19918;-45
2021/01/17 02:19:07;;;;;;;3.15;2.80;;;21.50;27.30;;;;;;4994745;28;20034;-45
2021/01/17 02:21:39;;;;;;;3.38;2.55;;;21.50;27.40;;;;;;4992199;28;20049;-48
2021/01/17 02:24:11;;;;;;;3.30;2.83;;;21.50;27.40;;;;;;4975877;28;20415;-47
2021/01/17 02:26:41;;;;;;;3.35;2.67;;;21.40;27.30;;;;;;4991295;28;20037;-44
2021/01/17 02:29:08;;;;;;;2.78;2.55;;;21.50;27.40;;;;;;4976052;28;20483;-45
2021/01/17 02:31:40;;;;;;;3.63;2.55;;;21.40;27.40;;;;;;4975770;28;20049;-43
2021/01/17 02:34:09;;;;;;;3.20;2.90;;;21.40;27.40;;;;;;4994668;28;20034;-44
2021/01/17 02:36:50;;;;;;;4.32;2.72;;;21.40;27.40;;;;;;4994351;28;20054;-45
2021/01/17 02:39:37;;;;;;;3.58;3.03;;;21.40;27.50;;;;;;4993383;28;20049;-47
2021/01/17 02:42:03;;;;;;;3.42;2.55;;;21.40;27.50;;;;;;4989001;28;20172;-44
2021/01/17 02:44:31;;;;;;;3.60;3.10;;;21.40;27.50;;;;;;4995349;28;20038;-46
2021/01/17 02:46:58;;;;;;;3.22;2.72;;;21.40;27.50;;;;;;4994383;28;20398;-46
2021/01/17 02:49:24;;;;;;;3.47;3.08;;;21.40;27.50;;;;;;4995037;28;20022;-47
2021/01/17 02:51:51;;;;;;;3.97;3.38;;;21.40;27.60;;;;;;4989272;28;20045;-46
2021/01/17 02:54:33;;;;;;;4.03;3.28;;;21.40;27.60;;;;;;4978045;28;20049;-44
2021/01/17 02:57:07;;;;;;;3.50;3.20;;;21.40;27.50;;;;;;4985861;28;20026;-43
2021/01/17 02:59:37;;;;;;;3.50;3.20;;;21.40;27.50;;;;;;4995103;28;20045;-43
2021/01/17 03:02:06;;;;;;;3.72;2.88;;;21.40;27.50;;;;;;4985874;28;20049;-44
2021/01/17 03:04:46;;;;;;;3.70;2.80;;;21.30;27.50;;;;;;4994350;28;20350;-44
2021/01/17 03:07:13;;;;;;;3.03;2.70;;;21.30;27.50;;;;;;4993636;28;20304;-43
2021/01/17 03:09:43;;;;;;;3.78;2.63;;;21.30;27.50;;;;;;4990778;28;20121;-44
2021/01/17 03:12:09;;;;;;;3.40;2.53;;;21.30;27.60;;;;;;4995104;28;20030;-45
2021/01/17 03:14:36;;;;;;;4.75;3.00;;;21.30;27.60;;;;;;4993969;28;20092;-44
2021/01/17 03:17:07;;;;;;;3.05;2.67;;;21.30;27.70;;;;;;4993752;28;20389;-47
2021/01/17 03:19:33;;;;;;;3.00;2.63;;;21.30;27.70;;;;;;4971490;28;20042;-43
2021/01/17 03:21:59;;;;;;;2.53;2.33;;;21.30;27.70;;;;;;4994183;28;20366;-43
2021/01/17 03:24:25;;;;;;;3.40;2.70;;;21.20;27.70;;;;;;4995478;28;20097;-44
2021/01/17 03:26:51;;;;;;;3.00;2.70;;;21.20;27.70;;;;;;4997504;28;20466;-43
2021/01/17 03:29:17;;;;;;;3.20;2.90;;;21.20;27.70;;;;;;4992715;28;20035;-43
2021/01/17 03:31:43;;;;;;;3.58;2.95;;;21.20;27.70;;;;;;4998260;28;20033;-43
2021/01/17 03:34:09;;;;;;;3.28;2.92;;;21.20;27.70;;;;;;4997557;28;20032;-45
2021/01/17 03:36:35;;;;;;;3.47;2.90;;;21.20;27.70;;;;;;4997431;28;20046;-46
2021/01/17 03:39:01;;;;;;;3.72;2.70;;;21.20;27.70;;;;;;4995307;28;20030;-43
2021/01/17 03:41:26;;;;;;;2.53;2.33;;;21.20;27.70;;;;;;4998032;28;20438;-45
2021/01/17 03:43:54;;;;;;;3.05;2.60;;;21.20;27.80;;;;;;4997417;28;20035;-45
2021/01/17 03:46:20;;;;;;;3.92;2.85;;;21.20;27.80;;;;;;4997992;28;20037;-45
2021/01/17 03:48:46;;;;;;;3.38;2.80;;;21.20;27.80;;;;;;4997823;28;20034;-45
2021/01/17 03:51:12;;;;;;;3.42;2.83;;;21.20;27.70;;;;;;4998025;28;20370;-45
2021/01/17 03:53:37;;;;;;;3.13;2.83;;;21.20;27.70;;;;;;4996740;28;20092;-45
2021/01/17 03:56:04;;;;;;;3.22;2.90;;;21.20;27.70;;;;;;4984447;28;20127;-47
2021/01/17 03:58:30;;;;;;;3.13;2.83;;;21.20;27.70;;;;;;4978766;28;20053;-46
2021/01/17 04:00:56;;;;;;;3.05;2.72;;;21.10;27.70;;;;;;4997927;28;20125;-46
2021/01/17 04:03:21;;;;;;;3.47;2.50;;;21.10;27.70;;;;;;4997272;28;20034;-45
2021/01/17 04:05:47;;;;;;;3.05;2.50;;;21.10;27.70;;;;;;4997509;28;20039;-45
2021/01/17 04:08:13;;;;;;;3.17;2.55;;;21.10;27.70;;;;;;4997222;28;20034;-46
2021/01/17 04:10:39;;;;;;;2.88;2.58;;;21.10;27.70;;;;;;4997697;28;20030;-47
2021/01/17 04:13:05;;;;;;;3.53;2.78;;;21.10;27.70;;;;;;4994792;28;20031;-47
2021/01/17 04:15:30;;;;;;;2.85;2.25;;;21.10;27.80;;;;;;4997651;28;20037;-49
2021/01/17 04:17:56;;;;;;;3.28;2.70;;;21.10;27.80;;;;;;4995495;28;20078;-44
2021/01/17 04:20:22;;;;;;;2.45;2.25;;;21.10;27.80;;;;;;4978081;28;20034;-45
2021/01/17 04:22:48;;;;;;;2.83;2.50;;;21.10;27.90;;;;;;4988044;28;20116;-44
2021/01/17 04:25:14;;;;;;;2.67;2.28;;;21.10;27.90;;;;;;4996940;28;20490;-46
2021/01/17 04:27:39;;;;;;;2.40;2.10;;;21.00;27.90;;;;;;4997286;28;20038;-45
2021/01/17 04:30:06;;;;;;;2.90;2.58;;;21.10;27.90;;;;;;4996217;28;20455;-45
2021/01/17 04:32:32;;;;;;;2.42;2.22;;;21.00;27.90;;;;;;4996396;28;20113;-45
2021/01/17 04:34:58;;;;;;;2.90;2.58;;;21.10;28.00;;;;;;4996401;28;20049;-45
2021/01/17 04:37:25;;;;;;;2.55;2.35;;;21.00;28.00;;;;;;4994564;28;20122;-45
2021/01/17 04:39:51;;;;;;;2.38;2.08;;;21.00;28.00;;;;;;4997347;28;20423;-45
2021/01/17 04:42:19;;;;;;;2.88;2.33;;;21.00;28.00;;;;;;4995945;28;20033;-47
2021/01/17 04:44:54;;;;;;;2.30;2.10;;;21.00;28.00;;;;;;4996989;28;20098;-45
2021/01/17 04:47:22;;;;;;;2.95;2.42;;;21.00;28.00;;;;;;4978633;28;20417;-44
2021/01/17 04:49:56;;;;;;;2.20;2.00;;;21.00;28.00;;;;;;4996333;28;20122;-46
2021/01/17 04:52:28;;;;;;;2.67;2.00;;;21.00;28.00;;;;;;4994397;28;20105;-47
2021/01/17 04:54:53;;;;;;;2.38;2.17;;;21.00;28.00;;;;;;4996788;28;20202;-44
2021/01/17 04:57:42;;;;;;;2.40;2.20;;;21.00;28.00;;;;;;4996146;28;20534;-48
2021/01/17 05:00:09;;;;;;;2.20;2.00;;;21.00;28.00;;;;;;4996618;28;20058;-47
2021/01/17 05:02:56;;;;;;;2.25;2.03;;;21.00;28.00;;;;;;4993559;28;20497;-49
2021/01/17 05:05:23;;;;;;;4.63;2.35;;;20.90;28.00;;;;;;4988799;28;20405;-48
2021/01/17 05:07:51;;;;;;;3.13;2.45;;;20.90;28.00;;;;;;4993457;28;20038;-46
2021/01/17 05:10:37;;;;;;;2.47;2.22;;;20.90;28.00;;;;;;4996703;28;20394;-47
2021/01/17 05:13:10;;;;;;;2.28;2.08;;;20.90;28.00;;;;;;4993703;28;20038;-51
2021/01/17 05:15:38;;;;;;;2.50;2.00;;;20.90;28.10;;;;;;4995463;28;20034;-48
2021/01/17 05:18:05;;;;;;;2.47;2.10;;;20.90;28.10;;;;;;4996026;28;20030;-45
2021/01/17 05:20:30;;;;;;;2.63;2.05;;;20.90;28.10;;;;;;4995260;28;20105;-49
2021/01/17 05:22:57;;;;;;;2.45;2.22;;;20.90;28.10;;;;;;4995912;28;20030;-44
2021/01/17 05:25:29;;;;;;;2.40;2.20;;;20.90;28.10;;;;;;4987496;28;20418;-46
2021/01/17 05:27:58;;;;;;;2.10;1.90;;;20.80;28.10;;;;;;4982953;28;20031;-45
2021/01/17 05:30:24;;;;;;;2.42;2.13;;;20.90;28.10;;;;;;4996396;28;20030;-42
2021/01/17 05:32:52;;;;;;;2.10;1.85;;;20.90;28.10;;;;;;4995418;28;20042;-47
2021/01/17 05:35:19;;;;;;;2.85;2.30;;;20.80;28.10;;;;;;4996119;28;20030;-44
2021/01/17 05:37:53;;;;;;;2.10;1.90;;;20.80;28.10;;;;;;4994093;28;20054;-44
2021/01/17 05:40:20;;;;;;;2.38;2.10;;;20.80;28.10;;;;;;4996143;28;20097;-43
2021/01/17 05:42:47;;;;;;;2.30;2.10;;;20.80;28.10;;;;;;4982256;28;20063;-46
2021/01/17 05:45:18;;;;;;;2.42;2.00;;;20.80;28.10;;;;;;4961777;28;20370;-44
2021/01/17 05:47:54;;;;;;;2.78;2.20;;;20.80;28.20;;;;;;4982728;28;20126;-45
2021/01/17 05:50:20;;;;;;;2.72;2.00;;;20.80;28.20;;;;;;4975995;28;20386;-45
2021/01/17 05:53:06;;;;;;;1.63;1.52;;;20.80;28.20;;;;;;4990603;28;20057;-44
2021/01/17 05:55:35;;;;;;;2.65;1.80;;;20.80;28.20;;;;;;4994448;28;20418;-45
2021/01/17 05:58:27;;;;;;;2.17;1.77;;;20.80;28.20;;;;;;4995421;28;20054;-45
2021/01/17 06:01:00;;;;;;;2.38;2.17;;;20.80;28.20;;;;;;4994927;28;20117;-45
2021/01/17 06:03:29;;;;;;;1.70;1.60;;;20.80;28.20;;;;;;4976157;28;20426;-45
2021/01/17 06:06:01;;;;;;;2.28;1.77;;;20.80;28.20;;;;;;4976530;28;20041;-45
2021/01/17 06:08:27;;;;;;;2.25;1.85;;;20.80;28.30;;;;;;4994106;28;20038;-44
2021/01/17 06:10:55;;;;;;;2.00;1.80;;;20.70;28.30;;;;;;4994367;28;20031;-45
2021/01/17 06:13:23;;;;;;;2.28;1.88;;;20.70;28.30;;;;;;4995205;28;20095;-45
2021/01/17 06:15:49;;;;;;;1.90;1.70;;;20.70;28.30;;;;;;4994880;28;20096;-47
2021/01/17 06:18:20;;;;;;;2.17;1.88;;;20.70;28.30;;;;;;4995144;28;20044;-47
2021/01/17 06:20:47;;;;;;;2.20;1.67;;;20.70;28.30;;;;;;4994189;28;20026;-44
2021/01/17 06:23:19;;;;;;;1.92;1.60;;;20.70;28.30;;;;;;4995122;28;20042;-46
2021/01/17 06:25:45;;;;;;;2.00;1.80;;;20.70;28.30;;;;;;4989183;28;20069;-44
2021/01/17 06:28:14;;;;;;;1.95;1.75;;;20.70;28.30;;;;;;4995167;28;20062;-45
2021/01/17 06:30:41;;;;;;;2.58;1.98;;;20.70;28.40;;;;;;4994392;28;20077;-43
2021/01/17 06:33:08;;;;;;;2.30;2.05;;;20.70;28.40;;;;;;4994331;28;20026;-45
2021/01/17 06:35:39;;;;;;;2.38;1.90;;;20.70;28.40;;;;;;4994987;28;20034;-47
2021/01/17 06:38:21;;;;;;;1.83;1.55;;;20.70;28.40;;;;;;4989931;28;20121;-45
2021/01/17 06:40:48;;;;;;;1.48;1.38;;;20.60;28.30;;;;;;4977230;28;20066;-45
2021/01/17 06:43:15;;;;;;;1.70;1.60;;;20.60;28.40;;;;;;4993239;28;20448;-44
2021/01/17 06:45:43;;;;;;;2.00;1.75;;;20.60;28.40;;;;;;4994598;28;20138;-46
2021/01/17 06:48:24;;;;;;;1.92;1.52;;;20.60;28.40;;;;;;4958482;28;20137;-46
2021/01/17 06:50:50;;;;;;;2.13;1.85;;;20.60;28.40;;;;;;4982301;28;20358;-45
2021/01/17 06:53:23;;;;;;;1.90;1.67;;;20.60;28.40;;;;;;4994872;28;20084;-45
2021/01/17 06:55:50;;;;;;;2.20;1.73;;;20.60;28.40;;;;;;4984640;28;20057;-48
2021/01/17 06:58:19;;;;;;;2.08;1.70;;;20.60;28.40;;;;;;4995648;28;20034;-48
2021/01/17 07:00:46;;;;;;;1.92;1.73;;;20.60;28.40;;;;;;4980431;28;20037;-49
2021/01/17 07:03:17;;;;;;;1.98;1.65;;;20.60;28.40;;;;;;4998106;28;20030;-45
2021/01/17 07:05:49;;;;;;;1.83;1.60;;;20.60;28.50;;;;;;4998122;28;20112;-45
2021/01/17 07:08:15;;;;;;;1.85;1.70;;;20.60;28.50;;;;;;4998793;28;20045;-44
2021/01/17 07:10:41;;;;;;;1.92;1.73;;;20.60;28.50;;;;;;4988663;28;20034;-45
2021/01/17 07:13:09;;;;;;;1.60;1.50;;;20.60;28.50;;;;;;4998784;28;20442;-46
2021/01/17 07:15:37;;;;;;;1.70;1.60;;;20.60;28.50;;;;;;4986727;28;20046;-45
2021/01/17 07:18:08;;;;;;;1.77;1.50;;;20.60;28.50;;;;;;4998251;28;20053;-45
2021/01/17 07:20:36;;;;;;;1.67;1.58;;;20.60;28.50;;;;;;4985554;28;20454;-45
2021/01/17 07:23:04;;;;;;;2.78;1.52;;;20.60;28.50;;;;;;4998750;28;20494;-46
2021/01/17 07:25:32;;;;;;;2.13;1.60;;;20.60;28.50;;;;;;4986643;28;20054;-47
2021/01/17 07:28:08;;;;;;;1.75;1.63;;;20.50;28.50;;;;;;4979305;28;20041;-45
2021/01/17 07:30:46;;;;;;;2.05;1.83;;;20.50;28.50;;;;;;4981573;28;20456;-46
2021/01/17 07:33:14;;;;;;;1.73;1.48;;;20.50;28.60;;;;;;4979824;28;20031;-48
2021/01/17 07:35:45;;;;;;;1.80;1.70;;;20.50;28.60;;;;;;4987028;28;20113;-44
2021/01/17 07:38:17;;;;;;;2.22;1.60;;;20.50;28.60;;;;;;4994305;28;20449;-49
2021/01/17 07:40:49;;;;;;;1.50;1.33;;;20.50;28.60;;;;;;4998468;28;20069;-44
2021/01/17 07:43:16;;;;;;;3.65;1.73;;;20.50;28.60;;;;;;4997848;28;20126;-45
2021/01/17 07:45:42;;;;;;;1.58;1.45;;;20.50;28.60;;;;;;4997441;28;20030;-44
2021/01/17 07:48:11;;;;;;;2.33;1.73;;;20.50;28.70;;;;;;4997370;28;20096;-44
2021/01/17 07:50:39;;;;;;;1.90;1.70;;;20.50;28.70;;;;;;4997975;28;20030;-45
2021/01/17 07:53:19;;;;;;;1.95;1.75;;;20.50;28.70;;;;;;4995924;28;20037;-46
2021/01/17 07:55:46;;;;;;;1.85;1.65;;;20.50;28.70;;;;;;4995448;28;20229;-45
2021/01/17 07:58:13;;;;;;;1.60;1.50;;;20.50;28.70;;;;;;4995378;28;20241;-57
2021/01/17 08:00:39;;;;;;;1.65;1.50;;;20.50;28.80;;;;;;4996730;28;20035;-54
2021/01/17 08:03:06;;;;;;;1.77;1.60;;;20.50;29.00;;;;;;4997263;28;20105;-54
2021/01/17 08:05:54;;;;;;;2.10;1.38;;;20.60;29.20;;;;;;4997512;28;20452;-53
2021/01/17 08:08:44;;;;;;;3.25;1.33;;;20.60;29.30;;;;;;4994210;28;20049;-50
2021/01/17 08:11:10;;;;;;;1.27;1.17;;;20.70;29.30;;;;;;4982430;28;20061;-50
2021/01/17 08:13:36;;;;;;;2.40;1.50;;;20.80;29.20;;;;;;4992675;28;20026;-65
2021/01/17 08:16:12;;;;;;;1.60;1.27;;;20.80;29.10;;;;;;4995724;28;20082;-47
2021/01/17 08:18:40;;;;;;;1.98;1.50;;;20.90;29.00;;;;;;4996654;28;20033;-50
2021/01/17 08:21:21;;;;;;;2.25;1.50;;;21.00;28.90;;;;;;4994285;28;20100;-48
2021/01/17 08:24:12;;;;;;;1.70;1.58;;;21.20;29.10;;;;;;4991762;28;20026;-47
2021/01/17 08:26:58;;;;;;;1.77;1.50;;;21.20;28.90;;;;;;4984131;28;20041;-48
2021/01/17 08:29:23;;;;;;;1.40;1.30;;;21.30;28.90;;;;;;4997245;28;20370;-48
2021/01/17 08:31:49;;;;;;;1.90;1.50;;;21.40;28.90;;;;;;4996272;28;20037;-49
2021/01/17 08:34:17;;;;;;;2.03;1.60;;;21.50;28.80;;;;;;4996493;28;20042;-47
2021/01/17 08:36:44;;;;;;;1.52;1.20;;;21.60;28.80;;;;;;4997157;28;20373;-48
2021/01/17 08:39:11;;;;;;;2.08;1.80;;;21.70;28.80;;;;;;5005048;28;20110;-47
2021/01/17 08:41:40;;;;;;;2.47;1.65;;;21.80;28.80;;;;;;4996967;28;20038;-46
2021/01/17 08:44:07;;;;;;;2.58;1.80;;;21.90;28.70;;;;;;4995618;28;20030;-45
2021/01/17 08:46:39;;;;;;;2.10;1.50;;;22.00;28.70;;;;;;4996584;28;20535;-48
2021/01/17 08:49:05;;;;;;;2.20;1.60;;;22.10;28.60;;;;;;4996437;28;20041;-46
2021/01/17 08:51:31;;;;;;;2.47;1.88;;;22.20;28.60;;;;;;4996506;28;20038;-52
2021/01/17 08:54:21;;;;;;;1.92;1.70;;;22.30;28.50;;;;;;4979145;28;20046;-48
2021/01/17 08:56:47;;;;;;;2.00;1.60;;;22.40;28.50;;;;;;4996587;28;20108;-49
2021/01/17 08:59:32;;;;;;;2.30;1.60;;;22.50;28.50;;;;;;4996062;28;20038;-47
2021/01/17 09:02:01;;;;;;;3.15;2.22;;;22.60;28.40;;;;;;4996394;28;20037;-45
2021/01/17 09:04:29;;;;;;;3.05;2.20;;;22.70;28.40;;;;;;4995912;28;20068;-50
2021/01/17 09:06:56;;;;;;;2.63;1.98;;;22.80;28.30;;;;;;4978632;28;20125;-50
2021/01/17 09:09:22;;;;;;;2.58;1.95;;;22.90;28.20;;;;;;4978353;28;20182;-45
2021/01/17 09:11:50;;;;;;;3.42;2.60;;;23.00;28.20;;;;;;4986201;28;20027;-46
2021/01/17 09:14:27;;;;;;;3.55;2.42;;;23.00;28.10;;;;;;4996373;28;20095;-45
2021/01/17 09:16:57;;;;;;;3.30;2.70;;;23.20;28.10;;;;;;4992560;28;20053;-48
2021/01/17 09:19:28;;;;;;;4.43;2.95;;;23.30;28.00;;;;;;4995043;28;20453;-46
2021/01/17 09:21:55;;;;;;;3.80;3.13;;;23.30;27.90;;;;;;4993110;28;20034;-47
2021/01/17 09:24:32;;;;;;;4.10;2.85;;;23.40;27.80;;;;;;4995198;28;20039;-45
2021/01/17 09:27:03;;;;;;;4.65;2.90;;;23.50;27.80;;;;;;4997521;28;20113;-45
2021/01/17 09:29:33;;;;;;;4.10;2.92;;;23.60;27.80;;;;;;4995271;28;20446;-49
2021/01/17 09:32:03;;;;;;;4.28;2.70;;;23.70;27.70;;;;;;4990775;28;20433;-45
2021/01/17 09:34:32;;;;;;;4.63;3.33;;;23.80;27.70;;;;;;4995573;28;20034;-45
2021/01/17 09:37:01;;;;;;;5.00;3.22;;;23.80;27.60;;;;;;4994426;28;20404;-45
2021/01/17 09:39:34;;;;;;;6.78;3.13;;;23.90;27.60;;;;;;4989819;28;20030;-44
2021/01/17 09:42:02;;;;;;;4.38;2.65;;;24.00;27.60;;;;;;4993373;28;20065;-46
2021/01/17 09:44:28;;;;;;;4.72;3.20;;;24.00;27.50;;;;;;4995528;28;20042;-45
2021/01/17 09:46:54;;;;;;;3.83;2.88;;;24.20;27.50;;;;;;4987725;28;20030;-44
2021/01/17 09:49:26;;;;;;;3.67;2.80;;;24.30;27.40;;;;;;4996154;28;20323;-50
2021/01/17 09:51:52;;;;;;;5.03;2.90;;;24.40;27.30;;;;;;4992410;28;20113;-46
2021/01/17 09:54:18;;;;;;;3.70;2.88;;;24.60;27.20;;;;;;4983569;28;20030;-48
2021/01/17 09:56:45;;;;;;;3.38;2.83;;;24.70;27.10;;;;;;4990937;28;20054;-47
2021/01/17 09:59:19;;;;;;;3.22;2.60;;;24.80;27.00;;;;;;4994612;28;20034;-49
2021/01/17 10:01:46;;;;;;;4.43;2.83;;;25.00;26.90;;;;;;4971747;28;20101;-43
2021/01/17 10:04:22;;;;;;;6.68;2.78;;;25.10;26.90;;;;;;4989499;28;20096;-48
2021/01/17 10:06:51;;;;;;;4.40;3.28;;;25.20;26.80;;;;;;4994903;28;20062;-45
2021/01/17 10:09:18;;;;;;;3.35;2.42;;;25.30;26.70;;;;;;4995743;28;20061;-48
2021/01/17 10:11:44;;;;;;;4.05;2.75;;;25.30;26.60;;;;;;4992973;28;20069;-45
2021/01/17 10:14:12;;;;;;;3.72;2.72;;;25.40;26.50;;;;;;4995966;28;20045;-46
2021/01/17 10:16:38;;;;;;;3.42;2.67;;;25.50;26.50;;;;;;4982933;28;20354;-47
2021/01/17 10:19:06;;;;;;;3.70;2.70;;;25.50;26.40;;;;;;4994255;28;20104;-48
2021/01/17 10:21:39;;;;;;;3.72;3.00;;;25.60;26.40;;;;;;4992528;28;20034;-45
2021/01/17 10:24:09;;;;;;;3.17;2.70;;;25.60;26.40;;;;;;4994173;28;20027;-52
2021/01/17 10:26:35;;;;;;;4.13;3.10;;;25.70;26.40;;;;;;4994819;28;20027;-49
2021/01/17 10:29:05;;;;;;;3.20;2.47;;;25.60;26.40;;;;;;4994596;28;20026;-54
2021/01/17 10:31:36;;;;;;;3.95;3.08;;;25.70;26.40;;;;;;4993894;28;20030;-66
2021/01/17 10:34:03;;;;;;;2.85;2.05;;;25.70;26.20;;;;;;4994764;28;20052;-63
2021/01/17 10:36:30;;;;;;;2.25;1.58;;;25.50;23.90;;;;;;4995231;28;20030;-59
2021/01/17 10:38:56;;;;;;;1.70;1.25;;;25.10;24.20;;;;;;4992278;28;20022;-52
2021/01/17 10:41:26;;;;;;;2.58;1.67;;;24.90;24.70;;;;;;4975339;28;20041;-46
2021/01/17 10:44:02;;;;;;;3.15;2.00;;;24.80;25.10;;;;;;4980389;28;20026;-46
2021/01/17 10:46:29;;;;;;;4.03;1.98;;;24.90;25.40;;;;;;4990581;28;20040;-45
2021/01/17 10:49:08;;;;;;;5.10;2.95;;;24.90;25.70;;;;;;4978951;28;20037;-48
2021/01/17 10:51:55;;;;;;;7.85;5.20;;;25.00;26.50;;;;;;4987234;28;20035;-47
2021/01/17 10:54:31;;;;;;;10.32;5.97;;;25.00;27.90;;;;;;4987725;28;20113;-47
2021/01/17 10:57:03;;;;;;;11.85;6.65;;;25.00;29.40;;;;;;4968827;28;20442;-46
2021/01/17 10:59:30;;;;;;;11.02;6.72;;;25.10;31.00;;;;;;4988068;28;20030;-47
2021/01/17 11:01:57;;;;;;;14.73;8.05;;;25.00;32.60;;;;;;4978689;28;20037;-45
2021/01/17 11:04:23;;;;;;;16.17;10.23;;;25.10;34.10;;;;;;4985921;28;20048;-45
2021/01/17 11:06:49;;;;;;;19.23;11.73;;;25.10;34.70;;;;;;4989101;28;20022;-46
2021/01/17 11:09:17;;;;;;;22.80;12.15;;;25.10;35.70;;;;;;4985299;28;20026;-43
2021/01/17 11:11:46;;;;;;;19.38;11.65;;;25.10;36.80;;;;;;4979699;28;20026;-43
2021/01/17 11:14:11;;;;;;;21.58;12.63;;;25.10;37.70;;;;;;4989539;28;20043;-44
2021/01/17 11:16:38;;;;;;;15.00;8.30;;;25.20;39.00;;;;;;4977219;28;20105;-48
2021/01/17 11:19:09;;;;;;;12.68;7.00;;;25.20;37.20;;;;;;4991383;28;20042;-44
2021/01/17 11:21:35;;;;;;;10.30;6.72;;;25.30;34.90;;;;;;4979224;28;20038;-45
2021/01/17 11:24:02;;;;;;;15.02;7.57;;;25.30;33.80;;;;;;4971445;28;20047;-46
2021/01/17 11:26:28;;;;;;;10.10;6.93;;;25.30;33.40;;;;;;4987173;28;20129;-45
2021/01/17 11:28:59;;;;;;;10.00;6.30;;;25.30;33.20;;;;;;4987527;28;20106;-49
2021/01/17 11:31:26;;;;;;;7.90;3.15;;;25.40;32.60;;;;;;4987158;28;20034;-65
2021/01/17 11:33:52;;;;;;;5.25;2.60;;;25.30;26.50;;;;;;4994224;28;20030;-54
2021/01/17 11:36:28;;;;;;;6.30;3.13;;;24.80;25.70;;;;;;4992160;28;20042;-58
2021/01/17 11:38:57;;;;;;;6.95;3.10;;;24.30;26.50;;;;;;4993204;28;20026;-63
2021/01/17 11:41:32;;;;;;;8.63;3.28;;;23.90;27.10;;;;;;4990632;28;20361;-58
2021/01/17 11:44:16;;;;;;;7.43;2.55;;;23.60;27.60;;;;;;4987256;28;20090;-53
2021/01/17 11:46:43;;;;;;;5.65;2.78;;;23.30;28.00;;;;;;4985763;28;20090;-52
2021/01/17 11:49:09;;;;;;;4.32;3.30;;;23.10;28.60;;;;;;4994369;28;20022;-48
2021/01/17 11:51:37;;;;;;;5.68;2.80;;;23.10;29.10;;;;;;4989479;28;20034;-48
2021/01/17 11:54:13;;;;;;;6.10;3.20;;;23.20;29.40;;;;;;4967329;28;20117;-49
2021/01/17 11:56:41;;;;;;;4.00;2.88;;;23.30;29.50;;;;;;4989079;28;20053;-52
2021/01/17 11:59:07;;;;;;;5.10;3.10;;;23.40;29.60;;;;;;4969925;28;20128;-48
2021/01/17 12:01:33;;;;;;;4.68;2.80;;;23.50;29.60;;;;;;4980988;28;20522;-44
2021/01/17 12:04:04;;;;;;;5.22;3.20;;;23.60;29.60;;;;;;4990547;28;20031;-48
2021/01/17 12:06:30;;;;;;;5.70;3.30;;;23.70;29.60;;;;;;4992665;28;20034;-47
2021/01/17 12:09:02;;;;;;;5.40;3.47;;;23.70;29.60;;;;;;4986004;28;20030;-50
2021/01/17 12:11:41;;;;;;;5.90;3.28;;;23.80;29.70;;;;;;4993947;28;20049;-47
2021/01/17 12:14:13;;;;;;;5.13;3.00;;;23.90;29.70;;;;;;4992154;28;20342;-49
2021/01/17 12:16:56;;;;;;;6.30;3.28;;;23.90;29.60;;;;;;4994118;28;20048;-45
2021/01/17 12:19:23;;;;;;;6.55;3.60;;;23.90;29.60;;;;;;4992598;28;20354;-46
2021/01/17 12:21:53;;;;;;;5.25;3.45;;;23.90;29.60;;;;;;4977533;28;20036;-48
2021/01/17 12:24:19;;;;;;;6.43;4.05;;;23.90;29.50;;;;;;4992685;28;20038;-46
2021/01/17 12:26:46;;;;;;;6.13;4.13;;;23.90;29.60;;;;;;4994945;28;20474;-44
2021/01/17 12:29:16;;;;;;;7.40;4.72;;;23.90;29.60;;;;;;4994866;28;20494;-51
2021/01/17 12:31:42;;;;;;;6.88;4.63;;;24.00;29.60;;;;;;4994511;28;20026;-46
2021/01/17 12:34:09;;;;;;;7.00;5.07;;;24.00;29.60;;;;;;4995483;28;20050;-44
2021/01/17 12:36:36;;;;;;;7.35;5.03;;;23.90;29.60;;;;;;4978942;28;20466;-45
2021/01/17 12:39:04;;;;;;;9.77;6.47;;;23.90;29.60;;;;;;4994997;28;20291;-46
2021/01/17 12:41:32;;;;;;;9.15;6.75;;;23.90;29.60;;;;;;4994447;28;20048;-46
2021/01/17 12:43:58;;;;;;;7.88;6.10;;;23.90;29.70;;;;;;4994824;28;20046;-49
2021/01/17 12:46:25;;;;;;;9.25;7.07;;;23.90;29.70;;;;;;4991940;28;20026;-47
2021/01/17 12:48:51;;;;;;;8.55;6.88;;;23.90;29.70;;;;;;4993952;28;20452;-46
2021/01/17 12:51:17;;;;;;;10.10;7.20;;;23.90;29.70;;;;;;4980790;28;20134;-47
2021/01/17 12:53:45;;;;;;;12.98;7.57;;;23.90;29.80;;;;;;4982313;28;20114;-48
2021/01/17 12:56:11;;;;;;;12.13;8.00;;;23.90;29.80;;;;;;4976917;28;20039;-46